Time;durP1;ratioP1;P1;durP2;ratioP2;P2;SDS_P1;SDS_P2;PMS_P1;PMS_P2;Temp;Humidity;BMP_temperature;BMP_pressure;BME280_temperature;BME280_humidity;BME280_pressure;Samples;Min_cycle;Max_cycle;Signal;HPM_P1;HPM_P2
2024/04/24 00:02:19;;;;;;;4.13;2.80;;;13.00;85.90;;;;;;5383259;26;21032;-38
2024/04/24 00:04:47;;;;;;;3.80;2.53;;;12.90;85.80;;;;;;5344773;26;20564;-39
2024/04/24 00:07:13;;;;;;;3.10;2.40;;;12.90;85.80;;;;;;5358868;26;20464;-39
2024/04/24 00:09:40;;;;;;;5.07;2.23;;;12.90;85.80;;;;;;5364433;26;20449;-40
2024/04/24 00:12:08;;;;;;;5.03;2.70;;;12.90;85.80;;;;;;5343051;26;20338;-40
2024/04/24 00:14:34;;;;;;;2.60;2.23;;;12.90;85.80;;;;;;5384250;26;20531;-40
2024/04/24 00:17:03;;;;;;;2.57;2.17;;;12.90;85.80;;;;;;5390761;26;20528;-41
2024/04/24 00:19:36;;;;;;;2.20;2.00;;;12.90;85.80;;;;;;5407896;26;20509;-42
2024/04/24 00:22:05;;;;;;;2.37;2.17;;;12.90;85.80;;;;;;5395686;26;20453;-40
2024/04/24 00:24:31;;;;;;;4.93;2.07;;;12.90;85.80;;;;;;5393276;26;21366;-41
2024/04/24 00:26:57;;;;;;;3.53;1.60;;;12.90;85.80;;;;;;5392964;26;21047;-40
2024/04/24 00:29:29;;;;;;;2.50;1.60;;;12.90;85.70;;;;;;5388677;26;20537;-41
2024/04/24 00:32:04;;;;;;;2.30;1.80;;;12.90;85.80;;;;;;5393915;26;20518;-40
2024/04/24 00:34:31;;;;;;;1.40;1.20;;;12.90;85.70;;;;;;5379855;26;20512;-41
2024/04/24 00:36:58;;;;;;;5.13;1.80;;;12.90;85.80;;;;;;5383726;26;20466;-41
2024/04/24 00:39:32;;;;;;;2.10;1.60;;;12.90;85.80;;;;;;5343103;26;20818;-42
2024/04/24 00:42:01;;;;;;;3.10;1.47;;;12.80;85.70;;;;;;5381060;26;20592;-39
2024/04/24 00:44:32;;;;;;;2.57;1.80;;;12.80;85.70;;;;;;5380813;26;20556;-41
2024/04/24 00:47:01;;;;;;;1.47;1.30;;;12.80;85.70;;;;;;5393843;26;20813;-42
2024/04/24 00:49:33;;;;;;;1.83;1.60;;;12.80;85.70;;;;;;5350122;26;20468;-38
2024/04/24 00:52:02;;;;;;;1.77;1.27;;;12.80;85.70;;;;;;5415037;26;20519;-41
2024/04/24 00:54:28;;;;;;;2.80;1.60;;;12.80;85.80;;;;;;5372996;26;20471;-41
2024/04/24 00:56:57;;;;;;;1.93;1.40;;;12.80;85.80;;;;;;5365279;26;20974;-40
2024/04/24 00:59:28;;;;;;;2.33;1.60;;;12.80;85.80;;;;;;5362403;26;20553;-40
2024/04/24 01:01:55;;;;;;;2.13;1.70;;;12.80;85.80;;;;;;5365818;26;20512;-42
2024/04/24 01:04:21;;;;;;;1.90;1.27;;;12.80;85.70;;;;;;5385451;26;20464;-41
2024/04/24 01:06:47;;;;;;;2.03;1.63;;;12.80;85.80;;;;;;5360928;26;21501;-42
2024/04/24 01:09:22;;;;;;;2.13;1.83;;;12.70;85.70;;;;;;5364642;26;21457;-42
2024/04/24 01:11:53;;;;;;;4.50;1.47;;;12.70;85.80;;;;;;5383272;26;20514;-40
2024/04/24 01:14:26;;;;;;;4.10;1.83;;;12.70;85.90;;;;;;5381746;26;21222;-41
2024/04/24 01:17:03;;;;;;;2.13;1.60;;;12.70;86.00;;;;;;5382764;26;20538;-42
2024/04/24 01:19:32;;;;;;;2.40;1.70;;;12.70;86.00;;;;;;5328885;26;21167;-41
2024/04/24 01:22:36;;;;;;;2.63;1.70;;;12.70;86.10;;;;;;5364768;26;21019;-42
2024/04/24 01:26:00;;;;;;;2.63;1.73;;;12.70;86.10;;;;;;5372521;26;20534;-41
2024/04/24 01:28:26;;;;;;;2.67;2.10;;;12.70;86.30;;;;;;5254157;27;20470;-38
2024/04/24 01:30:59;;;;;;;3.20;1.80;;;12.70;86.40;;;;;;5255751;27;20605;-40
2024/04/24 01:36:10;;;;;;;1.60;1.50;;;12.60;87.20;;;;;;5288954;26;20471;-37
2024/04/24 01:38:36;;;;;;;2.17;1.97;;;12.60;86.40;;;;;;5297283;27;20471;-40
2024/04/24 01:41:02;;;;;;;3.20;1.70;;;12.60;86.50;;;;;;5296914;26;20646;-41
2024/04/24 01:43:31;;;;;;;3.50;2.10;;;12.60;86.50;;;;;;5291794;26;20869;-40
2024/04/24 01:45:57;;;;;;;2.20;1.73;;;12.60;86.60;;;;;;5291269;27;21389;-42
2024/04/24 01:48:25;;;;;;;3.83;2.27;;;12.60;86.60;;;;;;5291365;27;20539;-41
2024/04/24 01:50:51;;;;;;;2.97;2.03;;;12.60;86.70;;;;;;5289499;27;20601;-40
2024/04/24 01:53:22;;;;;;;4.17;1.90;;;12.60;86.70;;;;;;5300086;26;21029;-40
2024/04/24 01:55:53;;;;;;;3.10;1.90;;;12.60;86.70;;;;;;5275278;27;20519;-41
2024/04/24 01:58:21;;;;;;;4.17;1.70;;;12.60;86.70;;;;;;5288689;27;20545;-41
2024/04/24 02:00:53;;;;;;;4.17;1.80;;;12.60;86.60;;;;;;5287947;27;21440;-42
2024/04/24 02:03:21;;;;;;;3.40;2.10;;;12.60;86.60;;;;;;5299907;26;20510;-37
2024/04/24 02:05:47;;;;;;;2.80;1.57;;;12.50;86.50;;;;;;5292653;26;20509;-42
2024/04/24 02:08:15;;;;;;;4.07;1.83;;;12.50;86.60;;;;;;5296940;26;20455;-42
2024/04/24 02:10:42;;;;;;;3.83;1.87;;;12.50;86.70;;;;;;5288106;26;21445;-42
2024/04/24 02:13:11;;;;;;;4.13;1.60;;;12.50;86.70;;;;;;5288839;26;20475;-41
2024/04/24 02:15:37;;;;;;;1.93;1.33;;;12.50;86.70;;;;;;5288719;27;21205;-42
2024/04/24 02:18:06;;;;;;;7.27;3.10;;;12.50;86.70;;;;;;5289537;27;20472;-42
2024/04/24 02:20:38;;;;;;;2.60;1.60;;;12.50;86.70;;;;;;5291610;26;20656;-40
2024/04/24 02:23:07;;;;;;;4.30;2.13;;;12.50;86.70;;;;;;5270605;27;20491;-40
2024/04/24 02:25:34;;;;;;;5.53;1.73;;;12.50;86.80;;;;;;5287757;27;20471;-42
2024/04/24 02:28:11;;;;;;;3.70;1.50;;;12.50;86.80;;;;;;5287175;27;20483;-40
2024/04/24 02:30:39;;;;;;;3.67;1.80;;;12.50;86.70;;;;;;5286625;26;20537;-42
2024/04/24 02:33:06;;;;;;;3.07;1.47;;;12.50;86.70;;;;;;5289046;27;21423;-38
2024/04/24 02:35:34;;;;;;;2.47;1.93;;;12.50;86.70;;;;;;5273340;26;20515;-40
2024/04/24 02:38:00;;;;;;;3.80;1.60;;;12.40;86.50;;;;;;5294273;26;20925;-41
2024/04/24 02:40:34;;;;;;;2.83;1.43;;;12.50;86.70;;;;;;5291023;26;21620;-42
2024/04/24 02:43:05;;;;;;;2.30;1.80;;;12.40;86.60;;;;;;5291435;26;20472;-39
2024/04/24 02:45:34;;;;;;;2.40;1.43;;;12.40;86.70;;;;;;5301644;26;20601;-41
2024/04/24 02:48:06;;;;;;;6.33;1.73;;;12.40;86.70;;;;;;5309542;26;20464;-42
2024/04/24 02:50:34;;;;;;;4.27;1.60;;;12.40;86.80;;;;;;5294211;26;21397;-41
2024/04/24 02:53:00;;;;;;;3.90;1.70;;;12.40;87.60;;;;;;5293713;26;21153;-41
2024/04/24 02:55:26;;;;;;;3.80;1.93;;;12.40;86.90;;;;;;5273666;27;20529;-42
2024/04/24 02:57:53;;;;;;;2.00;1.23;;;12.40;86.80;;;;;;5272312;27;20626;-40
2024/04/24 03:00:18;;;;;;;5.87;2.07;;;12.40;86.90;;;;;;5296307;26;20875;-43
2024/04/24 03:02:46;;;;;;;3.60;1.53;;;12.40;86.90;;;;;;5286081;27;20556;-41
2024/04/24 03:05:14;;;;;;;2.63;1.50;;;12.40;86.90;;;;;;5294335;26;20459;-42
2024/04/24 03:07:41;;;;;;;4.30;1.90;;;12.30;86.90;;;;;;5287642;27;20471;-42
2024/04/24 03:10:10;;;;;;;2.40;1.60;;;12.30;86.80;;;;;;5299234;26;20509;-40
2024/04/24 03:12:36;;;;;;;4.60;2.43;;;12.30;86.90;;;;;;5307805;26;20957;-41
2024/04/24 03:15:04;;;;;;;3.70;1.80;;;12.30;86.90;;;;;;5291423;26;20503;-39
2024/04/24 03:17:30;;;;;;;7.33;1.60;;;12.30;86.90;;;;;;5288653;27;20593;-42
2024/04/24 03:19:56;;;;;;;4.63;1.77;;;12.30;86.90;;;;;;5290217;27;21169;-42
2024/04/24 03:22:22;;;;;;;3.30;1.33;;;12.30;87.00;;;;;;5302605;26;20485;-42
2024/04/24 03:24:51;;;;;;;6.13;1.57;;;12.30;87.00;;;;;;5290705;26;20484;-42
2024/04/24 03:27:17;;;;;;;3.67;1.63;;;12.30;87.00;;;;;;5292991;26;20475;-41
2024/04/24 03:29:51;;;;;;;3.77;1.60;;;12.30;87.00;;;;;;5303274;26;20574;-39
2024/04/24 03:32:18;;;;;;;4.10;1.70;;;12.30;87.00;;;;;;5312619;26;20534;-42
2024/04/24 03:34:46;;;;;;;4.23;1.70;;;12.30;87.00;;;;;;5297738;26;20475;-40
2024/04/24 03:37:12;;;;;;;3.13;1.70;;;12.30;87.10;;;;;;5291477;26;21049;-39
2024/04/24 03:39:41;;;;;;;2.80;1.50;;;12.20;87.00;;;;;;5298743;26;20468;-41
2024/04/24 03:42:06;;;;;;;1.30;1.20;;;12.20;87.90;;;;;;5293044;26;20516;-41
2024/04/24 03:44:35;;;;;;;2.60;1.40;;;12.20;87.00;;;;;;5289837;27;21434;-41
2024/04/24 03:47:01;;;;;;;2.30;1.23;;;12.20;87.10;;;;;;5256313;26;20517;-39
2024/04/24 03:49:27;;;;;;;3.13;1.70;;;12.20;87.10;;;;;;5295703;26;20467;-41
2024/04/24 03:51:55;;;;;;;3.00;1.63;;;12.20;87.20;;;;;;5274671;26;21075;-42
2024/04/24 03:54:21;;;;;;;5.00;1.63;;;12.20;87.20;;;;;;5323916;26;20530;-42
2024/04/24 03:56:50;;;;;;;6.13;1.70;;;12.20;87.10;;;;;;5306400;26;20534;-41
2024/04/24 03:59:16;;;;;;;4.80;1.83;;;12.20;87.10;;;;;;5325828;26;20470;-40
2024/04/24 04:01:42;;;;;;;4.17;1.77;;;12.20;87.20;;;;;;5302154;26;20892;-42
2024/04/24 04:04:10;;;;;;;3.20;1.67;;;12.20;87.20;;;;;;5290915;27;20531;-42
2024/04/24 04:06:36;;;;;;;4.10;1.53;;;12.20;87.20;;;;;;5306160;26;20463;-43
2024/04/24 04:09:02;;;;;;;6.23;1.70;;;12.20;87.20;;;;;;5290458;26;20535;-41
2024/04/24 04:11:28;;;;;;;4.43;1.57;;;12.10;87.00;;;;;;5288613;26;20248;-41
2024/04/24 04:13:54;;;;;;;5.40;1.87;;;12.10;87.00;;;;;;5295816;26;20575;-42
2024/04/24 04:16:20;;;;;;;3.13;1.60;;;12.10;87.00;;;;;;5300329;26;21309;-41
2024/04/24 04:18:49;;;;;;;5.00;1.63;;;12.10;87.20;;;;;;5292164;27;20991;-43
2024/04/24 04:21:15;;;;;;;2.97;1.63;;;12.10;87.20;;;;;;5319329;26;20527;-41
2024/04/24 04:23:41;;;;;;;4.93;1.20;;;12.10;87.20;;;;;;5313450;26;21346;-42
2024/04/24 04:26:12;;;;;;;3.10;1.60;;;12.10;87.30;;;;;;5255273;27;20537;-42
2024/04/24 04:28:40;;;;;;;4.43;1.30;;;12.10;87.30;;;;;;5288601;27;20933;-41
2024/04/24 04:31:06;;;;;;;4.37;1.60;;;12.10;87.30;;;;;;5288110;26;20518;-42
2024/04/24 04:33:34;;;;;;;9.10;2.07;;;12.10;87.20;;;;;;5296638;26;20479;-42
2024/04/24 04:36:07;;;;;;;2.87;1.60;;;12.00;87.10;;;;;;5299126;26;21126;-42
2024/04/24 04:38:33;;;;;;;2.10;1.50;;;12.00;87.20;;;;;;5299680;26;21495;-42
2024/04/24 04:41:05;;;;;;;2.30;1.10;;;12.00;87.20;;;;;;5289858;26;21570;-42
2024/04/24 04:43:31;;;;;;;2.23;1.43;;;12.00;87.30;;;;;;5300712;26;20519;-42
2024/04/24 04:46:00;;;;;;;2.17;1.53;;;12.00;87.20;;;;;;5315537;26;20587;-41
2024/04/24 04:48:28;;;;;;;2.00;1.37;;;12.00;87.30;;;;;;5284739;26;20532;-42
2024/04/24 04:51:00;;;;;;;3.47;1.40;;;12.00;87.30;;;;;;5295446;26;20590;-41
2024/04/24 04:53:30;;;;;;;3.90;1.63;;;12.00;87.40;;;;;;5293254;26;20510;-40
2024/04/24 04:55:56;;;;;;;2.60;1.77;;;12.00;87.30;;;;;;5296615;26;20487;-41
2024/04/24 04:58:24;;;;;;;7.13;1.40;;;12.00;87.30;;;;;;5316159;26;20482;-41
2024/04/24 05:00:54;;;;;;;5.73;2.13;;;12.00;87.20;;;;;;5249807;26;20474;-41
2024/04/24 05:03:22;;;;;;;3.03;1.50;;;12.00;87.10;;;;;;5306411;26;20542;-42
2024/04/24 05:05:51;;;;;;;4.77;1.40;;;12.00;87.30;;;;;;5300948;26;20478;-42
2024/04/24 05:08:19;;;;;;;4.97;2.20;;;12.00;87.30;;;;;;5306181;26;20475;-41
2024/04/24 05:10:45;;;;;;;3.77;1.73;;;11.90;87.10;;;;;;5315064;26;20505;-41
2024/04/24 05:13:11;;;;;;;2.20;1.40;;;11.90;88.00;;;;;;5295493;26;20532;-41
2024/04/24 05:15:43;;;;;;;2.87;1.50;;;11.90;87.30;;;;;;5311445;26;20648;-41
2024/04/24 05:18:09;;;;;;;2.50;1.73;;;11.90;87.30;;;;;;5313945;26;20993;-42
2024/04/24 05:20:38;;;;;;;3.17;1.70;;;11.90;87.20;;;;;;5321446;26;20475;-39
2024/04/24 05:23:05;;;;;;;3.27;1.80;;;11.90;87.20;;;;;;5303372;26;20528;-41
2024/04/24 05:25:37;;;;;;;2.37;1.20;;;11.90;87.20;;;;;;5299165;26;20472;-41
2024/04/24 05:30:51;;;;;;;4.00;1.80;;;11.90;87.30;;;;;;5305703;26;20479;-42
2024/04/24 05:33:17;;;;;;;2.40;1.50;;;11.90;87.30;;;;;;5293027;27;20459;-38
2024/04/24 05:35:46;;;;;;;2.17;1.60;;;11.90;87.30;;;;;;5289444;26;20483;-41
2024/04/24 05:38:14;;;;;;;2.93;1.50;;;11.90;87.30;;;;;;5259481;27;21121;-38
2024/04/24 05:40:40;;;;;;;4.50;1.37;;;11.90;87.30;;;;;;5287227;27;20451;-39
2024/04/24 05:43:08;;;;;;;7.23;1.47;;;11.80;87.00;;;;;;5289531;26;20557;-41
2024/04/24 05:45:38;;;;;;;3.87;1.83;;;11.80;87.00;;;;;;5290863;27;20471;-43
2024/04/24 05:48:04;;;;;;;6.17;1.87;;;11.80;86.90;;;;;;5287460;26;20546;-40
2024/04/24 05:50:30;;;;;;;3.60;2.30;;;11.80;86.90;;;;;;5286116;27;20479;-40
2024/04/24 05:52:58;;;;;;;1.87;1.73;;;11.80;86.90;;;;;;5288635;27;20475;-39
2024/04/24 05:55:27;;;;;;;4.03;2.00;;;11.80;86.90;;;;;;5290163;27;20468;-39
2024/04/24 05:57:53;;;;;;;3.03;1.80;;;11.80;86.90;;;;;;5287149;27;20456;-40
2024/04/24 06:00:19;;;;;;;2.40;1.90;;;11.80;86.90;;;;;;5289980;27;21249;-39
2024/04/24 06:02:45;;;;;;;4.60;2.83;;;11.80;86.90;;;;;;5290078;27;20611;-37
2024/04/24 06:05:12;;;;;;;3.70;2.77;;;11.80;86.90;;;;;;5290451;26;21181;-40
2024/04/24 06:07:40;;;;;;;3.57;2.90;;;11.80;87.00;;;;;;5288577;27;20452;-40
2024/04/24 06:10:07;;;;;;;5.93;3.50;;;11.80;87.00;;;;;;5288789;26;20467;-41
2024/04/24 06:12:35;;;;;;;4.03;2.83;;;11.80;86.90;;;;;;5259041;27;20590;-38
2024/04/24 06:15:01;;;;;;;5.67;2.77;;;11.80;86.90;;;;;;5290270;26;20471;-39
2024/04/24 06:17:29;;;;;;;6.87;2.93;;;11.80;86.90;;;;;;5260103;27;20455;-39
2024/04/24 06:19:56;;;;;;;4.97;3.00;;;11.80;86.90;;;;;;5289383;26;20463;-40
2024/04/24 06:22:24;;;;;;;4.00;2.57;;;11.80;86.90;;;;;;5291834;27;20471;-42
2024/04/24 06:24:50;;;;;;;4.07;2.30;;;11.80;86.90;;;;;;5294492;27;20467;-39
2024/04/24 06:27:18;;;;;;;4.40;2.73;;;11.80;86.70;;;;;;5288321;27;20460;-41
2024/04/24 06:29:44;;;;;;;4.43;2.60;;;11.70;86.60;;;;;;5289493;26;20531;-41
2024/04/24 06:32:11;;;;;;;4.60;2.63;;;11.70;86.60;;;;;;5257972;27;20479;-37
2024/04/24 06:34:38;;;;;;;5.73;2.50;;;11.70;86.60;;;;;;5286491;27;20488;-40
2024/04/24 06:37:04;;;;;;;5.63;2.60;;;11.70;86.60;;;;;;5287531;27;21736;-41
2024/04/24 06:39:30;;;;;;;5.20;2.40;;;11.70;86.70;;;;;;5286982;26;20463;-40
2024/04/24 06:41:56;;;;;;;4.60;2.50;;;11.70;86.60;;;;;;5259316;27;20516;-39
2024/04/24 06:44:22;;;;;;;6.77;2.50;;;11.70;86.60;;;;;;5288068;27;20274;-40
2024/04/24 06:46:49;;;;;;;5.90;3.17;;;11.70;86.50;;;;;;5289011;27;20472;-38
2024/04/24 06:49:15;;;;;;;6.50;2.27;;;11.70;86.60;;;;;;5289565;26;20471;-38
2024/04/24 06:51:41;;;;;;;4.93;2.10;;;11.70;86.50;;;;;;5260971;27;20546;-39
2024/04/24 06:54:08;;;;;;;5.80;2.40;;;11.70;86.50;;;;;;5287152;27;20463;-40
2024/04/24 06:56:45;;;;;;;4.77;3.13;;;11.70;86.50;;;;;;5287658;27;20527;-37
2024/04/24 06:59:16;;;;;;;3.57;2.00;;;11.70;86.50;;;;;;5259192;27;20459;-43
2024/04/24 07:01:42;;;;;;;3.70;2.13;;;11.70;86.40;;;;;;5291243;27;21062;-39
2024/04/24 07:04:08;;;;;;;4.20;2.40;;;11.70;86.50;;;;;;5294453;26;20471;-40
2024/04/24 07:06:37;;;;;;;4.40;2.27;;;11.70;86.50;;;;;;5295515;27;21425;-40
2024/04/24 07:09:03;;;;;;;5.87;2.20;;;11.70;86.50;;;;;;5298874;26;20512;-41
2024/04/24 07:11:31;;;;;;;3.50;2.03;;;11.70;86.50;;;;;;5297534;27;20573;-40
2024/04/24 07:14:00;;;;;;;4.83;2.03;;;11.70;86.50;;;;;;5299555;27;20535;-41
2024/04/24 07:16:31;;;;;;;4.00;1.83;;;11.70;86.40;;;;;;5296834;27;20506;-41
2024/04/24 07:18:57;;;;;;;3.07;2.20;;;11.70;86.40;;;;;;5298814;27;20574;-41
2024/04/24 07:21:25;;;;;;;11.33;2.63;;;11.70;86.40;;;;;;5277993;26;20893;-39
2024/04/24 07:23:54;;;;;;;3.77;2.37;;;11.70;86.40;;;;;;5292467;26;20590;-42
2024/04/24 07:26:20;;;;;;;1.83;1.70;;;11.70;86.50;;;;;;5308697;26;20539;-41
2024/04/24 07:28:46;;;;;;;2.50;1.47;;;11.70;86.50;;;;;;5319108;26;20458;-38
2024/04/24 07:31:12;;;;;;;3.30;3.00;;;11.70;86.40;;;;;;5296750;26;20595;-42
2024/04/24 07:33:50;;;;;;;3.47;1.90;;;11.70;86.40;;;;;;5300737;26;20482;-41
2024/04/24 07:36:18;;;;;;;3.43;1.73;;;11.70;86.40;;;;;;5303232;26;20518;-41
2024/04/24 07:38:49;;;;;;;3.33;1.80;;;11.70;86.30;;;;;;5304381;26;20591;-39
2024/04/24 07:41:15;;;;;;;5.53;2.30;;;11.70;86.30;;;;;;5314204;26;20529;-40
2024/04/24 07:43:41;;;;;;;5.50;1.80;;;11.70;86.30;;;;;;5309941;26;20471;-41
2024/04/24 07:46:10;;;;;;;4.53;1.90;;;11.70;86.30;;;;;;5302018;26;20466;-42
2024/04/24 07:48:36;;;;;;;3.93;1.90;;;11.70;86.20;;;;;;5310173;26;20576;-40
2024/04/24 07:51:02;;;;;;;6.40;2.20;;;11.70;86.20;;;;;;5319647;26;20490;-40
2024/04/24 07:53:31;;;;;;;5.50;1.83;;;11.70;86.20;;;;;;5307529;26;21667;-42
2024/04/24 07:56:02;;;;;;;4.60;1.87;;;11.70;86.20;;;;;;5304733;26;20526;-41
2024/04/24 07:58:36;;;;;;;4.67;2.03;;;11.70;86.20;;;;;;5312642;26;20463;-42
2024/04/24 08:01:02;;;;;;;4.53;1.70;;;11.70;86.10;;;;;;5310279;26;20515;-41
2024/04/24 08:03:28;;;;;;;3.63;1.80;;;11.70;86.00;;;;;;5293436;26;20459;-41
2024/04/24 08:06:01;;;;;;;5.87;1.60;;;11.70;85.90;;;;;;5290948;26;21111;-43
2024/04/24 08:08:30;;;;;;;2.80;1.43;;;11.70;85.90;;;;;;5321873;26;20499;-41
2024/04/24 08:10:56;;;;;;;2.80;1.37;;;11.70;85.80;;;;;;5306144;26;20477;-42
2024/04/24 08:13:24;;;;;;;9.33;1.80;;;11.70;85.70;;;;;;5310905;26;21071;-41
2024/04/24 08:15:56;;;;;;;3.10;2.00;;;11.70;85.70;;;;;;5321785;26;20490;-41
2024/04/24 08:18:22;;;;;;;1.97;1.43;;;11.70;85.70;;;;;;5287367;26;20463;-39
2024/04/24 08:20:48;;;;;;;4.40;1.80;;;11.70;85.70;;;;;;5306961;26;20529;-42
2024/04/24 08:23:20;;;;;;;6.90;1.87;;;11.70;85.70;;;;;;5292896;26;20578;-41
2024/04/24 08:25:48;;;;;;;2.67;1.77;;;11.70;85.70;;;;;;5314266;26;20496;-41
2024/04/24 08:28:15;;;;;;;6.73;2.00;;;11.70;85.50;;;;;;5317202;26;20566;-41
2024/04/24 08:30:41;;;;;;;4.30;1.83;;;11.80;85.40;;;;;;5291615;26;20479;-41
2024/04/24 08:33:07;;;;;;;4.90;2.10;;;11.80;85.30;;;;;;5293566;26;20467;-42
2024/04/24 08:35:37;;;;;;;8.10;1.50;;;11.70;85.30;;;;;;5293011;26;20614;-42
2024/04/24 08:38:12;;;;;;;5.70;1.73;;;11.80;85.30;;;;;;5301006;26;20479;-42
2024/04/24 08:40:47;;;;;;;3.90;1.50;;;11.80;85.30;;;;;;5290970;26;20475;-40
2024/04/24 08:43:16;;;;;;;8.57;1.60;;;11.70;84.90;;;;;;5295988;26;20595;-42
2024/04/24 08:45:48;;;;;;;2.80;1.00;;;11.70;84.80;;;;;;5298169;26;20526;-41
2024/04/24 08:48:16;;;;;;;4.13;1.87;;;11.70;84.80;;;;;;5301877;26;20483;-41
2024/04/24 08:50:45;;;;;;;5.57;1.80;;;11.70;84.90;;;;;;5320876;26;20458;-40
2024/04/24 08:53:18;;;;;;;5.90;2.17;;;11.80;85.00;;;;;;5254186;26;20473;-41
2024/04/24 08:55:46;;;;;;;6.03;1.80;;;11.70;84.90;;;;;;5271931;26;20825;-41
2024/04/24 08:58:18;;;;;;;4.20;1.90;;;11.80;85.00;;;;;;5305564;26;21567;-39
2024/04/24 09:00:46;;;;;;;6.53;1.97;;;11.70;85.00;;;;;;5304538;26;20534;-41
2024/04/24 09:03:24;;;;;;;5.00;1.40;;;11.80;85.10;;;;;;5317024;26;20458;-41
2024/04/24 09:05:55;;;;;;;9.20;2.10;;;11.80;85.10;;;;;;5298494;26;20579;-41
2024/04/24 09:08:25;;;;;;;3.50;1.50;;;11.80;85.00;;;;;;5317908;26;20535;-41
2024/04/24 09:10:53;;;;;;;3.90;1.50;;;11.80;84.90;;;;;;5289716;26;21259;-42
2024/04/24 09:13:20;;;;;;;6.30;1.60;;;11.80;84.80;;;;;;5314413;26;20473;-42
2024/04/24 09:15:49;;;;;;;5.83;1.83;;;11.80;84.80;;;;;;5304100;26;20486;-42
2024/04/24 09:18:18;;;;;;;4.17;1.93;;;11.80;84.70;;;;;;5312674;26;20855;-41
2024/04/24 09:20:47;;;;;;;9.93;2.13;;;11.80;84.70;;;;;;5318752;26;20546;-42
2024/04/24 09:23:19;;;;;;;6.53;1.40;;;11.80;84.70;;;;;;5310132;26;21136;-42
2024/04/24 09:25:45;;;;;;;5.10;1.77;;;11.80;84.60;;;;;;5308997;26;20592;-41
2024/04/24 09:28:14;;;;;;;3.97;1.37;;;11.80;84.60;;;;;;5281784;26;20470;-42
2024/04/24 09:30:45;;;;;;;5.07;1.90;;;11.80;84.60;;;;;;5318376;26;20654;-41
2024/04/24 09:33:12;;;;;;;3.10;1.70;;;11.80;84.60;;;;;;5299860;26;20590;-41
2024/04/24 09:35:40;;;;;;;5.47;1.50;;;11.80;84.60;;;;;;5298182;26;20514;-42
2024/04/24 09:38:07;;;;;;;4.00;2.30;;;11.80;84.70;;;;;;5270858;26;20539;-40
2024/04/24 09:40:34;;;;;;;4.00;1.70;;;11.80;84.70;;;;;;5320380;26;20522;-41
2024/04/24 09:43:02;;;;;;;6.30;1.70;;;11.80;84.90;;;;;;5319839;26;20533;-40
2024/04/24 09:45:40;;;;;;;5.47;1.67;;;11.80;85.00;;;;;;5314551;26;20485;-42
2024/04/24 09:48:06;;;;;;;7.90;1.43;;;11.80;85.00;;;;;;5312948;26;20474;-41
2024/04/24 09:50:37;;;;;;;4.70;1.83;;;11.80;85.00;;;;;;5310005;26;21353;-41
2024/04/24 09:53:03;;;;;;;4.40;1.70;;;11.80;85.00;;;;;;5301972;26;20519;-41
2024/04/24 09:55:37;;;;;;;6.57;1.97;;;11.80;85.20;;;;;;5303659;26;20514;-42
2024/04/24 09:58:06;;;;;;;4.83;1.70;;;11.80;85.20;;;;;;5312374;26;21166;-39
2024/04/24 10:00:36;;;;;;;4.30;1.83;;;11.80;85.30;;;;;;5293848;26;20486;-42
2024/04/24 10:03:08;;;;;;;6.20;2.00;;;11.80;86.20;;;;;;5273575;26;20482;-41
2024/04/24 10:05:39;;;;;;;7.27;3.00;;;11.90;85.70;;;;;;5298656;26;20470;-35
2024/04/24 10:08:14;;;;;;;5.93;1.87;;;11.90;85.80;;;;;;5307001;26;20467;-38
2024/04/24 10:10:47;;;;;;;6.10;2.00;;;11.90;86.00;;;;;;5261557;26;20508;-40
2024/04/24 10:13:17;;;;;;;6.93;1.93;;;11.90;85.90;;;;;;5302294;26;20475;-40
2024/04/24 10:15:57;;;;;;;3.03;1.73;;;11.90;85.90;;;;;;5302102;26;20579;-39
2024/04/24 10:18:32;;;;;;;5.07;1.73;;;11.90;86.10;;;;;;5310453;26;20526;-38
2024/04/24 10:21:03;;;;;;;4.87;2.03;;;11.90;86.10;;;;;;5307634;26;20669;-38
2024/04/24 10:23:34;;;;;;;4.50;1.90;;;11.90;86.10;;;;;;5292474;26;20472;-39
2024/04/24 10:26:01;;;;;;;5.47;1.80;;;11.90;86.30;;;;;;5306768;26;20478;-39
2024/04/24 10:28:29;;;;;;;3.40;2.00;;;11.90;86.30;;;;;;5271490;26;20475;-38
2024/04/24 10:31:04;;;;;;;5.70;1.97;;;11.90;86.40;;;;;;5254176;27;20517;-38
2024/04/24 10:33:34;;;;;;;3.57;1.70;;;11.90;86.50;;;;;;5285705;26;21040;-37
2024/04/24 10:36:03;;;;;;;3.80;1.60;;;11.90;86.80;;;;;;5304501;26;20513;-38
2024/04/24 10:38:36;;;;;;;8.10;2.00;;;11.90;86.90;;;;;;5321526;26;21001;-40
2024/04/24 10:41:03;;;;;;;3.57;1.63;;;11.90;87.00;;;;;;5292710;26;21594;-39
2024/04/24 10:43:33;;;;;;;3.10;1.60;;;11.90;87.00;;;;;;5266543;26;20474;-39
2024/04/24 10:46:03;;;;;;;4.63;1.83;;;11.90;87.10;;;;;;5291609;26;20455;-39
2024/04/24 10:48:57;;;;;;;3.10;2.17;;;11.90;87.30;;;;;;5294171;26;21105;-39
2024/04/24 10:51:38;;;;;;;5.63;1.77;;;11.90;87.40;;;;;;5299362;26;21101;-39
2024/04/24 10:54:07;;;;;;;6.23;2.37;;;11.90;87.50;;;;;;5292577;26;20467;-38
2024/04/24 10:56:39;;;;;;;7.03;3.03;;;11.90;87.70;;;;;;5291798;26;20474;-40
2024/04/24 10:59:11;;;;;;;10.53;4.07;;;11.90;88.00;;;;;;5273040;26;20609;-38
2024/04/24 11:01:44;;;;;;;5.13;3.40;;;11.90;88.00;;;;;;5295724;26;21445;-40
2024/04/24 11:04:12;;;;;;;7.70;3.60;;;11.90;88.30;;;;;;5291729;27;20515;-36
2024/04/24 11:06:49;;;;;;;10.03;3.40;;;11.90;88.40;;;;;;5289958;27;20475;-38
2024/04/24 11:09:15;;;;;;;5.87;3.03;;;11.90;88.70;;;;;;5290129;26;20542;-36
2024/04/24 11:11:45;;;;;;;6.73;3.73;;;11.90;88.80;;;;;;5297554;26;21107;-41
2024/04/24 11:14:14;;;;;;;8.80;4.20;;;11.90;89.20;;;;;;5269673;27;20484;-39
2024/04/24 11:16:40;;;;;;;4.73;2.83;;;11.90;89.10;;;;;;5322342;26;20466;-38
2024/04/24 11:19:17;;;;;;;5.63;3.33;;;11.90;89.30;;;;;;5294661;26;20526;-41
2024/04/24 11:21:46;;;;;;;4.47;2.70;;;11.90;89.50;;;;;;5292660;27;20608;-40
2024/04/24 11:24:13;;;;;;;6.17;2.93;;;11.90;89.50;;;;;;5295368;26;20475;-39
2024/04/24 11:26:42;;;;;;;5.37;2.70;;;11.90;89.40;;;;;;5294718;27;20518;-35
2024/04/24 11:29:08;;;;;;;7.37;2.47;;;12.00;89.40;;;;;;5293733;27;20468;-38
2024/04/24 11:31:40;;;;;;;7.03;2.40;;;12.00;89.20;;;;;;5292866;26;20494;-40
2024/04/24 11:34:10;;;;;;;5.37;2.33;;;12.00;89.20;;;;;;5288194;26;20557;-41
2024/04/24 11:36:38;;;;;;;3.60;2.33;;;12.00;89.10;;;;;;5320772;26;20574;-39
2024/04/24 11:39:06;;;;;;;3.20;2.37;;;12.00;89.00;;;;;;5295436;26;20592;-41
2024/04/24 11:41:50;;;;;;;5.53;2.10;;;12.10;89.00;;;;;;5275594;26;20648;-41
2024/04/24 11:44:19;;;;;;;3.80;2.57;;;12.10;88.90;;;;;;5308572;26;20462;-38
2024/04/24 11:46:49;;;;;;;2.50;1.67;;;12.10;88.90;;;;;;5294778;27;20459;-37
2024/04/24 11:49:18;;;;;;;3.37;1.90;;;12.10;88.80;;;;;;5296350;27;20498;-41
2024/04/24 11:51:52;;;;;;;3.30;1.77;;;12.20;88.80;;;;;;5293091;27;20526;-40
2024/04/24 11:54:21;;;;;;;4.90;1.83;;;12.20;88.80;;;;;;5268802;26;20475;-41
2024/04/24 11:57:00;;;;;;;2.43;1.80;;;12.20;88.60;;;;;;5306544;26;20447;-40
2024/04/24 11:59:30;;;;;;;4.00;1.87;;;12.20;88.60;;;;;;5280014;26;20472;-39
2024/04/24 12:01:56;;;;;;;6.53;2.07;;;12.20;88.50;;;;;;5299237;26;20534;-41
2024/04/24 12:04:22;;;;;;;3.47;1.70;;;12.30;88.40;;;;;;5292383;26;20527;-37
2024/04/24 12:06:56;;;;;;;2.10;1.40;;;12.30;87.90;;;;;;5282261;27;21094;-39
2024/04/24 12:09:22;;;;;;;5.37;1.97;;;12.30;87.80;;;;;;5295912;26;20707;-39
2024/04/24 12:11:49;;;;;;;3.30;1.60;;;12.30;87.80;;;;;;5291088;26;21083;-39
2024/04/24 12:14:20;;;;;;;3.27;1.90;;;12.40;88.00;;;;;;5287828;27;20455;-42
2024/04/24 12:16:55;;;;;;;2.90;1.80;;;12.40;87.80;;;;;;5287635;26;20529;-39
2024/04/24 12:19:35;;;;;;;4.83;1.80;;;12.40;87.70;;;;;;5290728;26;20474;-41
2024/04/24 12:22:02;;;;;;;6.67;1.70;;;12.40;87.70;;;;;;5261739;27;20491;-40
2024/04/24 12:24:30;;;;;;;4.33;1.47;;;12.40;87.70;;;;;;5296562;26;20648;-40
2024/04/24 12:26:58;;;;;;;4.50;1.60;;;12.50;87.80;;;;;;5302597;26;20976;-40
2024/04/24 12:29:27;;;;;;;4.70;1.70;;;12.50;87.90;;;;;;5293892;26;20458;-40
2024/04/24 12:31:55;;;;;;;2.77;1.63;;;12.50;87.90;;;;;;5275023;27;20532;-38
2024/04/24 12:34:24;;;;;;;5.87;1.90;;;12.50;87.90;;;;;;5275067;26;20470;-39
2024/04/24 12:36:54;;;;;;;3.47;1.57;;;12.50;87.60;;;;;;5309569;26;20615;-40
2024/04/24 12:39:41;;;;;;;3.93;1.50;;;12.60;87.50;;;;;;5303562;26;20561;-38
2024/04/24 12:42:07;;;;;;;4.47;1.53;;;12.60;86.90;;;;;;5288922;26;20523;-39
2024/04/24 12:44:33;;;;;;;4.97;1.80;;;12.60;86.90;;;;;;5304543;26;20474;-38
2024/04/24 12:47:01;;;;;;;2.40;1.40;;;12.60;87.30;;;;;;5296059;26;20472;-38
2024/04/24 12:49:28;;;;;;;2.90;1.40;;;12.70;87.50;;;;;;5301631;26;20584;-41
2024/04/24 12:51:58;;;;;;;3.00;1.43;;;12.70;87.60;;;;;;5288423;26;21513;-41
2024/04/24 12:54:33;;;;;;;2.07;1.30;;;12.70;87.80;;;;;;5289335;26;20531;-38
2024/04/24 12:56:59;;;;;;;2.37;1.63;;;12.70;88.30;;;;;;5287285;26;20495;-37
2024/04/24 12:59:27;;;;;;;2.43;1.90;;;12.70;88.60;;;;;;5290876;26;20522;-40
2024/04/24 13:01:53;;;;;;;2.87;1.43;;;12.70;89.00;;;;;;5301364;26;20548;-37